Time;durP1;ratioP1;P1;durP2;ratioP2;P2;SDS_P1;SDS_P2;PMS_P1;PMS_P2;Temp;Humidity;BMP_temperature;BMP_pressure;BME280_temperature;BME280_humidity;BME280_pressure;Samples;Min_cycle;Max_cycle;Signal;HPM_P1;HPM_P2
2023/04/14 00:00:05;;;;;;;2.30;1.00;;;5.70;93.50;;;;;;5091636;28;20232;-69
2023/04/14 00:02:35;;;;;;;2.17;1.05;;;5.70;93.50;;;;;;5093836;28;20648;-69
2023/04/14 00:05:03;;;;;;;2.00;1.02;;;5.70;93.70;;;;;;5095628;28;20185;-70
2023/04/14 00:07:30;;;;;;;3.83;1.35;;;5.70;93.50;;;;;;5094929;28;20225;-69
2023/04/14 00:09:57;;;;;;;3.25;1.80;;;5.70;93.60;;;;;;5094997;28;20177;-69
2023/04/14 00:12:25;;;;;;;2.45;1.00;;;5.70;93.60;;;;;;5095362;28;20192;-69
2023/04/14 00:14:54;;;;;;;3.72;1.42;;;5.60;93.30;;;;;;5094827;28;20193;-70
2023/04/14 00:17:21;;;;;;;2.97;1.33;;;5.60;93.50;;;;;;5095058;28;20189;-69
2023/04/14 00:19:48;;;;;;;2.83;1.35;;;5.60;93.70;;;;;;5094539;28;20208;-69
2023/04/14 00:22:15;;;;;;;2.17;1.08;;;5.60;93.50;;;;;;5094777;28;20197;-70
2023/04/14 00:24:42;;;;;;;2.17;1.13;;;5.60;93.60;;;;;;5074588;28;20280;-69
2023/04/14 00:27:10;;;;;;;4.18;1.58;;;5.70;93.40;;;;;;5074501;28;20255;-69
2023/04/14 00:29:38;;;;;;;2.20;1.17;;;5.70;93.50;;;;;;5093570;28;20182;-69
2023/04/14 00:32:07;;;;;;;2.00;0.98;;;5.70;93.60;;;;;;5094900;28;20199;-69
2023/04/14 00:34:35;;;;;;;2.33;1.10;;;5.70;93.70;;;;;;5094380;28;20238;-69
2023/04/14 00:37:02;;;;;;;2.40;1.20;;;5.70;93.90;;;;;;5095167;28;20248;-69
2023/04/14 00:39:30;;;;;;;2.58;1.35;;;5.70;94.00;;;;;;5093905;28;20188;-69
2023/04/14 00:41:57;;;;;;;2.20;1.58;;;5.80;94.10;;;;;;5094840;28;20189;-70
2023/04/14 00:44:25;;;;;;;2.25;1.58;;;5.80;94.10;;;;;;5094205;28;20189;-69
2023/04/14 00:46:52;;;;;;;4.55;2.03;;;5.80;94.00;;;;;;5094780;28;20603;-69
2023/04/14 00:49:21;;;;;;;2.97;1.60;;;5.80;94.10;;;;;;5093752;28;20197;-69
2023/04/14 00:51:48;;;;;;;2.65;1.58;;;5.80;94.20;;;;;;5094514;28;20196;-70
2023/04/14 00:54:18;;;;;;;2.55;1.50;;;5.80;94.20;;;;;;5094469;28;20215;-69
2023/04/14 00:56:46;;;;;;;2.60;1.60;;;5.80;94.10;;;;;;5094544;28;20647;-69
2023/04/14 00:59:14;;;;;;;2.80;1.63;;;5.80;94.00;;;;;;5093463;28;20269;-69
2023/04/14 01:01:41;;;;;;;3.22;1.85;;;5.90;94.00;;;;;;5094466;28;20217;-69
2023/04/14 01:04:09;;;;;;;2.10;1.42;;;5.90;93.90;;;;;;5093900;28;20254;-70
2023/04/14 01:06:37;;;;;;;2.80;1.83;;;5.90;93.80;;;;;;5094257;28;20357;-70
2023/04/14 01:09:05;;;;;;;3.58;2.25;;;5.90;93.60;;;;;;5093595;28;20178;-70
2023/04/14 01:11:54;;;;;;;2.67;1.48;;;5.90;93.60;;;;;;5074043;28;20289;-69
2023/04/14 01:14:31;;;;;;;2.42;1.42;;;5.90;93.60;;;;;;5088029;28;20185;-70
2023/04/14 01:17:06;;;;;;;2.40;1.40;;;5.90;93.50;;;;;;5093962;28;20185;-70
2023/04/14 01:19:47;;;;;;;2.63;1.60;;;5.90;93.40;;;;;;5093119;28;20177;-70
2023/04/14 01:22:20;;;;;;;2.58;1.45;;;5.90;93.40;;;;;;5093998;28;20193;-69
2023/04/14 01:25:08;;;;;;;2.22;1.35;;;5.90;93.50;;;;;;5092837;28;20597;-69
2023/04/14 01:27:44;;;;;;;2.22;1.30;;;5.90;93.10;;;;;;5094091;28;20200;-69
2023/04/14 01:30:28;;;;;;;2.70;1.60;;;5.90;93.00;;;;;;5092163;28;20280;-70
2023/04/14 01:33:03;;;;;;;2.50;1.77;;;5.90;93.10;;;;;;5093275;28;20185;-70
2023/04/14 01:35:37;;;;;;;2.83;1.60;;;5.90;93.20;;;;;;5093734;28;20215;-69
2023/04/14 01:38:09;;;;;;;2.53;1.80;;;5.90;93.20;;;;;;5093506;28;20200;-69
2023/04/14 01:40:39;;;;;;;2.63;1.58;;;5.90;93.30;;;;;;5093228;28;20755;-70
2023/04/14 01:43:11;;;;;;;2.22;1.42;;;5.90;93.60;;;;;;5093072;28;20193;-69
2023/04/14 01:45:43;;;;;;;2.15;1.30;;;5.90;93.60;;;;;;5093571;28;20200;-69
2023/04/14 01:48:12;;;;;;;2.97;1.75;;;5.90;93.80;;;;;;5093030;28;20193;-69
2023/04/14 01:50:42;;;;;;;2.40;1.70;;;5.90;93.90;;;;;;5092739;28;20189;-69
2023/04/14 01:53:11;;;;;;;3.85;1.50;;;5.90;93.60;;;;;;5093128;28;20189;-70
2023/04/14 01:55:40;;;;;;;2.35;1.45;;;5.90;93.50;;;;;;5093526;28;20621;-70
2023/04/14 01:58:10;;;;;;;2.30;1.30;;;5.90;93.60;;;;;;5093456;28;20193;-70
2023/04/14 02:00:38;;;;;;;2.80;1.70;;;5.90;93.50;;;;;;5092694;28;20243;-69
2023/04/14 02:03:06;;;;;;;3.00;2.20;;;5.90;93.30;;;;;;5093073;28;20193;-69
2023/04/14 02:05:38;;;;;;;3.45;1.88;;;5.90;93.30;;;;;;5093315;28;20189;-70
2023/04/14 02:08:10;;;;;;;2.55;1.95;;;5.90;93.30;;;;;;5093346;28;20189;-69
2023/04/14 02:10:40;;;;;;;2.60;1.48;;;5.90;93.40;;;;;;5092221;28;20192;-69
2023/04/14 02:13:09;;;;;;;2.90;1.80;;;5.90;93.20;;;;;;5093203;28;20235;-69
2023/04/14 02:15:37;;;;;;;2.40;1.30;;;5.90;93.30;;;;;;5092584;28;20643;-70
2023/04/14 02:18:06;;;;;;;3.05;1.77;;;5.90;93.10;;;;;;5092509;28;20211;-70
2023/04/14 02:20:42;;;;;;;2.75;1.73;;;5.90;93.00;;;;;;5092171;28;20609;-69
2023/04/14 02:23:09;;;;;;;2.42;1.50;;;5.90;92.80;;;;;;5092498;28;20552;-70
2023/04/14 02:25:40;;;;;;;2.45;1.38;;;5.80;92.80;;;;;;5092672;28;20647;-69
2023/04/14 02:28:16;;;;;;;2.35;1.40;;;5.80;92.40;;;;;;5092525;28;20189;-70
2023/04/14 02:30:47;;;;;;;2.20;1.50;;;5.70;92.20;;;;;;5082103;28;20185;-69
2023/04/14 02:33:20;;;;;;;2.63;1.55;;;5.60;92.40;;;;;;5092219;28;20760;-70
2023/04/14 02:35:52;;;;;;;2.75;1.50;;;5.60;92.50;;;;;;5092891;28;20545;-69
2023/04/14 02:38:23;;;;;;;2.75;1.75;;;5.50;92.80;;;;;;5092374;28;20242;-71
2023/04/14 02:40:51;;;;;;;2.78;1.80;;;5.50;93.00;;;;;;5092031;28;20574;-69
2023/04/14 02:43:20;;;;;;;3.15;1.83;;;5.50;93.50;;;;;;5092502;28;20200;-69
2023/04/14 02:45:49;;;;;;;4.05;1.50;;;5.50;93.60;;;;;;5092391;28;20189;-69
2023/04/14 02:48:19;;;;;;;3.08;1.40;;;5.50;93.90;;;;;;5092419;28;20523;-69
2023/04/14 02:50:50;;;;;;;4.05;2.00;;;5.50;94.00;;;;;;5091360;28;20177;-69
2023/04/14 02:53:21;;;;;;;2.00;1.35;;;5.50;94.10;;;;;;5091931;28;20221;-69
2023/04/14 02:55:50;;;;;;;2.20;1.40;;;5.60;94.20;;;;;;5092472;28;20192;-69
2023/04/14 02:58:18;;;;;;;4.15;2.55;;;5.60;94.30;;;;;;5092078;28;20223;-70
2023/04/14 03:00:46;;;;;;;3.80;2.00;;;5.50;94.40;;;;;;5091628;28;20228;-69
2023/04/14 03:03:15;;;;;;;2.80;1.67;;;5.60;93.90;;;;;;5091746;28;20234;-69
2023/04/14 03:05:44;;;;;;;2.75;1.33;;;5.60;93.50;;;;;;5092766;28;20200;-70
2023/04/14 03:08:15;;;;;;;2.47;1.75;;;5.60;93.60;;;;;;5091908;28;20185;-70
2023/04/14 03:10:46;;;;;;;2.50;1.52;;;5.50;93.80;;;;;;5091841;28;20548;-69
2023/04/14 03:13:15;;;;;;;2.30;1.35;;;5.50;93.80;;;;;;5091993;28;20217;-70
2023/04/14 03:15:43;;;;;;;2.50;1.60;;;5.50;93.70;;;;;;5092344;28;20189;-70
2023/04/14 03:18:12;;;;;;;3.60;1.70;;;5.50;94.20;;;;;;5091865;28;20184;-70
2023/04/14 03:20:44;;;;;;;2.60;1.70;;;5.50;94.20;;;;;;5091172;28;20736;-70
2023/04/14 03:23:17;;;;;;;2.88;2.40;;;5.50;94.40;;;;;;5091667;28;20181;-69
2023/04/14 03:25:46;;;;;;;3.03;2.20;;;5.50;94.70;;;;;;5092185;28;20193;-69
2023/04/14 03:28:18;;;;;;;2.85;1.90;;;5.50;95.00;;;;;;5091479;28;20185;-69
2023/04/14 03:30:50;;;;;;;3.85;2.45;;;5.50;95.10;;;;;;5091647;28;20227;-70
2023/04/14 03:33:22;;;;;;;2.90;2.10;;;5.50;95.40;;;;;;5091764;28;20196;-69
2023/04/14 03:35:52;;;;;;;4.00;2.58;;;5.60;95.20;;;;;;5092274;28;20186;-69
2023/04/14 03:38:25;;;;;;;5.63;2.20;;;5.60;95.00;;;;;;5095631;28;20200;-69
2023/04/14 03:40:53;;;;;;;3.67;2.58;;;5.60;94.70;;;;;;5095554;28;20212;-70
2023/04/14 03:43:22;;;;;;;4.20;2.70;;;5.60;94.50;;;;;;5095493;28;20193;-69
2023/04/14 03:45:50;;;;;;;3.00;2.05;;;5.60;94.50;;;;;;5095899;28;20189;-69
2023/04/14 03:48:20;;;;;;;4.10;3.22;;;5.70;94.40;;;;;;5095225;28;20199;-70
2023/04/14 03:50:50;;;;;;;3.10;2.35;;;5.70;94.30;;;;;;5095468;28;20644;-69
2023/04/14 03:53:20;;;;;;;3.22;2.67;;;5.70;94.30;;;;;;5095633;28;20202;-70
2023/04/14 03:55:51;;;;;;;3.35;2.20;;;5.60;94.40;;;;;;5095627;28;20184;-69
2023/04/14 03:58:20;;;;;;;4.22;2.50;;;5.60;94.50;;;;;;5075451;28;20236;-69
2023/04/14 04:00:48;;;;;;;6.72;2.75;;;5.60;94.60;;;;;;5086991;28;20197;-69
2023/04/14 04:03:15;;;;;;;3.70;2.78;;;5.70;94.80;;;;;;5095784;28;20283;-69
2023/04/14 04:05:43;;;;;;;2.90;2.00;;;5.70;94.70;;;;;;5095779;28;20189;-69
2023/04/14 04:08:12;;;;;;;4.50;2.40;;;5.70;94.30;;;;;;5095882;28;20532;-69
2023/04/14 04:10:41;;;;;;;3.88;2.80;;;5.70;94.10;;;;;;5093948;28;20208;-69
2023/04/14 04:13:15;;;;;;;4.75;2.50;;;5.70;93.90;;;;;;5095078;28;20188;-69
2023/04/14 04:15:44;;;;;;;3.85;2.22;;;5.70;93.70;;;;;;5095002;28;20238;-69
2023/04/14 04:18:15;;;;;;;3.08;2.20;;;5.70;93.60;;;;;;5095614;28;20247;-69
2023/04/14 04:20:43;;;;;;;3.42;2.22;;;5.70;93.70;;;;;;5094639;28;20242;-69
2023/04/14 04:23:12;;;;;;;3.10;2.13;;;5.70;93.60;;;;;;5095260;28;20642;-69
2023/04/14 04:25:41;;;;;;;3.38;2.17;;;5.70;93.70;;;;;;5095046;28;20185;-70
2023/04/14 04:28:10;;;;;;;3.47;2.00;;;5.70;93.70;;;;;;5095279;28;20185;-69
2023/04/14 04:30:40;;;;;;;3.40;2.40;;;5.70;93.80;;;;;;5094928;28;20192;-69
2023/04/14 04:33:08;;;;;;;3.20;2.58;;;5.70;94.00;;;;;;5095347;28;20280;-70
2023/04/14 04:35:36;;;;;;;2.50;1.60;;;5.70;94.10;;;;;;5094735;28;20185;-69
2023/04/14 04:38:04;;;;;;;3.42;1.80;;;5.70;93.80;;;;;;5095753;28;20284;-69
2023/04/14 04:40:37;;;;;;;2.90;2.00;;;5.60;93.90;;;;;;5094627;28;20213;-69
2023/04/14 04:43:10;;;;;;;3.53;2.55;;;5.60;93.80;;;;;;5095046;28;20678;-70
2023/04/14 04:45:51;;;;;;;3.58;2.25;;;5.50;94.10;;;;;;5093871;28;20192;-70
2023/04/14 04:48:19;;;;;;;3.13;2.33;;;5.50;94.30;;;;;;5094197;28;20224;-69
2023/04/14 04:50:46;;;;;;;2.80;1.67;;;5.50;94.60;;;;;;5094242;28;20235;-70
2023/04/14 04:53:13;;;;;;;2.80;1.80;;;5.50;94.70;;;;;;5094324;28;20215;-70
2023/04/14 04:55:41;;;;;;;2.63;1.75;;;5.60;94.80;;;;;;5094104;28;20594;-70
2023/04/14 04:58:08;;;;;;;3.38;1.75;;;5.60;94.90;;;;;;5094096;28;20188;-71
2023/04/14 05:00:36;;;;;;;2.30;1.30;;;5.70;95.20;;;;;;5094145;28;20581;-71
2023/04/14 05:03:04;;;;;;;2.30;1.52;;;5.60;95.20;;;;;;5094022;28;20585;-70
2023/04/14 05:05:35;;;;;;;2.30;1.33;;;5.70;95.10;;;;;;5094262;28;20181;-70
2023/04/14 05:08:03;;;;;;;2.55;1.52;;;5.70;94.90;;;;;;5093897;28;20188;-70
2023/04/14 05:10:30;;;;;;;2.67;1.70;;;5.70;94.30;;;;;;5094165;28;20189;-70
2023/04/14 05:12:57;;;;;;;3.45;1.98;;;5.70;94.50;;;;;;5093959;28;20234;-70
2023/04/14 05:15:24;;;;;;;3.58;1.70;;;5.70;94.70;;;;;;5093187;28;20185;-70
2023/04/14 05:17:53;;;;;;;2.22;1.65;;;5.80;94.70;;;;;;5093693;28;20178;-69
2023/04/14 05:20:20;;;;;;;3.38;2.10;;;5.80;94.60;;;;;;5094351;28;20193;-69
2023/04/14 05:22:47;;;;;;;3.75;2.35;;;5.80;94.60;;;;;;5093621;28;20204;-70
2023/04/14 05:25:14;;;;;;;2.90;2.00;;;5.80;94.70;;;;;;5093449;28;20621;-70
2023/04/14 05:27:41;;;;;;;3.30;2.30;;;5.80;94.70;;;;;;5093719;28;20272;-69
2023/04/14 05:30:09;;;;;;;4.20;2.05;;;5.80;94.60;;;;;;5093961;28;20667;-70
2023/04/14 05:32:36;;;;;;;3.75;2.30;;;5.80;94.80;;;;;;5093871;28;20185;-70
2023/04/14 05:35:06;;;;;;;3.05;2.00;;;5.80;95.00;;;;;;5093669;28;20704;-73
2023/04/14 05:37:33;;;;;;;2.97;1.65;;;5.80;95.00;;;;;;5093788;28;20188;-70
2023/04/14 05:40:00;;;;;;;6.75;2.92;;;5.80;94.80;;;;;;5093920;28;20193;-70
2023/04/14 05:42:27;;;;;;;3.50;2.08;;;5.90;94.90;;;;;;5089477;28;20213;-70
2023/04/14 05:44:54;;;;;;;4.13;2.40;;;5.90;94.80;;;;;;5092404;28;20181;-70
2023/04/14 05:47:22;;;;;;;5.07;2.88;;;5.90;94.90;;;;;;5092636;28;20619;-70
2023/04/14 05:49:49;;;;;;;6.20;3.33;;;6.00;94.80;;;;;;5089575;28;20196;-70
2023/04/14 05:52:18;;;;;;;4.35;3.30;;;6.00;94.80;;;;;;5092601;28;20193;-70
2023/04/14 05:54:45;;;;;;;7.95;3.97;;;6.00;95.00;;;;;;5092209;28;20185;-71
2023/04/14 05:57:14;;;;;;;5.75;2.85;;;6.10;94.70;;;;;;5091276;28;20197;-74
2023/04/14 05:59:42;;;;;;;4.45;3.17;;;6.10;94.70;;;;;;5091089;28;20708;-69
2023/04/14 06:02:09;;;;;;;3.72;2.70;;;6.10;93.90;;;;;;5092330;28;20220;-70
2023/04/14 06:04:37;;;;;;;5.90;3.08;;;6.20;93.90;;;;;;5093709;28;20199;-70
2023/04/14 06:07:04;;;;;;;4.82;3.30;;;6.20;93.90;;;;;;5099918;28;20738;-70
2023/04/14 06:09:32;;;;;;;7.60;3.58;;;6.20;94.10;;;;;;5095682;28;20181;-70
2023/04/14 06:12:00;;;;;;;5.82;4.57;;;6.30;94.40;;;;;;5099973;28;20192;-70
2023/04/14 06:14:27;;;;;;;5.07;3.35;;;6.30;94.50;;;;;;5097095;28;20654;-71
2023/04/14 06:16:55;;;;;;;5.93;4.20;;;6.30;94.70;;;;;;5093019;28;20659;-71
2023/04/14 06:19:22;;;;;;;5.95;3.17;;;6.40;94.40;;;;;;5098939;28;20192;-69
2023/04/14 06:21:49;;;;;;;5.57;3.72;;;6.40;94.50;;;;;;5097997;28;20209;-70
2023/04/14 06:24:16;;;;;;;6.63;4.65;;;6.50;94.70;;;;;;5096054;28;20647;-71
2023/04/14 06:26:44;;;;;;;9.48;3.55;;;6.50;94.60;;;;;;5096623;28;20181;-71
2023/04/14 06:29:12;;;;;;;4.60;3.40;;;6.60;94.10;;;;;;5090288;28;20192;-71
2023/04/14 06:31:39;;;;;;;8.35;3.90;;;6.60;94.10;;;;;;5098602;28;20192;-70
2023/04/14 06:34:06;;;;;;;5.85;3.97;;;6.70;94.00;;;;;;5094445;28;20185;-70
2023/04/14 06:36:36;;;;;;;6.90;3.78;;;6.70;93.90;;;;;;5095260;28;20185;-70
2023/04/14 06:39:03;;;;;;;5.03;3.90;;;6.80;94.00;;;;;;5098545;28;20238;-71
2023/04/14 06:41:30;;;;;;;6.05;3.55;;;6.90;94.20;;;;;;5095359;28;20193;-71
2023/04/14 06:43:59;;;;;;;4.55;2.95;;;6.90;93.80;;;;;;5098579;28;20232;-70
2023/04/14 06:46:26;;;;;;;5.53;3.80;;;7.00;93.50;;;;;;5099253;28;20199;-70
2023/04/14 06:48:53;;;;;;;5.00;3.70;;;7.00;93.20;;;;;;5094913;28;20180;-71
2023/04/14 06:51:20;;;;;;;4.32;3.63;;;7.00;92.90;;;;;;5095842;28;20189;-70
2023/04/14 06:53:47;;;;;;;5.72;4.22;;;7.10;92.60;;;;;;5092941;28;20631;-70
2023/04/14 06:56:14;;;;;;;5.93;3.70;;;7.10;92.60;;;;;;5093255;28;20208;-70
2023/04/14 06:58:41;;;;;;;5.13;3.42;;;7.10;92.80;;;;;;5092963;28;20279;-70
2023/04/14 07:01:10;;;;;;;6.47;4.30;;;7.10;92.90;;;;;;5092934;28;20716;-70
2023/04/14 07:03:36;;;;;;;4.85;3.53;;;7.10;93.00;;;;;;5092883;28;20225;-70
2023/04/14 07:06:04;;;;;;;4.18;2.95;;;7.10;93.20;;;;;;5092854;28;20185;-71
2023/04/14 07:08:33;;;;;;;6.97;3.30;;;7.10;93.30;;;;;;5092856;28;20193;-70
2023/04/14 07:11:01;;;;;;;7.32;4.15;;;7.10;93.50;;;;;;5093610;28;20639;-70
2023/04/14 07:13:28;;;;;;;5.95;3.70;;;7.20;93.60;;;;;;5097311;28;20199;-70
2023/04/14 07:15:55;;;;;;;5.45;3.47;;;7.30;93.70;;;;;;5097252;28;20281;-70
2023/04/14 07:18:24;;;;;;;4.65;3.40;;;7.30;93.50;;;;;;5096818;28;20228;-70
2023/04/14 07:20:52;;;;;;;5.93;3.25;;;7.30;93.50;;;;;;5096927;28;20192;-70
2023/04/14 07:23:20;;;;;;;5.45;3.97;;;7.30;93.10;;;;;;5096816;28;20223;-70
2023/04/14 07:25:51;;;;;;;5.47;3.15;;;7.30;93.10;;;;;;5096915;28;20238;-70
2023/04/14 07:28:18;;;;;;;4.38;2.50;;;7.30;93.20;;;;;;5096576;28;20199;-70
2023/04/14 07:30:45;;;;;;;8.48;3.30;;;7.30;93.10;;;;;;5096300;28;20189;-70
2023/04/14 07:33:13;;;;;;;6.00;3.40;;;7.20;93.00;;;;;;5096262;28;20281;-70
2023/04/14 07:35:41;;;;;;;9.13;3.33;;;7.20;93.10;;;;;;5096492;28;20189;-70
2023/04/14 07:38:08;;;;;;;4.60;3.53;;;7.30;93.00;;;;;;5096756;28;20716;-70
2023/04/14 07:40:35;;;;;;;4.03;2.78;;;7.40;93.40;;;;;;5096193;28;20686;-70
2023/04/14 07:43:02;;;;;;;9.02;3.42;;;7.40;93.40;;;;;;5096720;28;20217;-70
2023/04/14 07:45:29;;;;;;;5.30;3.67;;;7.40;92.80;;;;;;5096201;28;20242;-71
2023/04/14 07:47:57;;;;;;;4.95;2.97;;;7.50;93.00;;;;;;5096319;28;20196;-70
2023/04/14 07:50:24;;;;;;;5.40;3.53;;;7.50;92.60;;;;;;5096645;28;20378;-70
2023/04/14 07:52:52;;;;;;;6.18;3.72;;;7.50;92.50;;;;;;5096239;28;20184;-70
2023/04/14 07:55:19;;;;;;;5.60;3.30;;;7.60;92.80;;;;;;5096380;28;20238;-70
2023/04/14 07:57:46;;;;;;;4.85;3.30;;;7.60;92.70;;;;;;5096423;28;20224;-70
2023/04/14 08:00:14;;;;;;;6.72;3.38;;;7.70;92.60;;;;;;5096206;28;20290;-70
2023/04/14 08:02:41;;;;;;;7.10;3.45;;;7.70;92.20;;;;;;5096019;28;20266;-70
2023/04/14 08:05:08;;;;;;;5.75;4.15;;;7.70;91.50;;;;;;5096185;28;20215;-70
2023/04/14 08:07:35;;;;;;;5.75;3.20;;;7.80;91.40;;;;;;5096215;28;20185;-70
2023/04/14 08:10:04;;;;;;;8.10;2.78;;;7.80;91.60;;;;;;5095972;28;20639;-70
2023/04/14 08:12:31;;;;;;;5.00;2.90;;;7.80;91.80;;;;;;5096029;28;20246;-70
2023/04/14 08:14:58;;;;;;;6.30;4.15;;;7.80;91.50;;;;;;5095835;28;20531;-70
2023/04/14 08:17:25;;;;;;;4.85;3.75;;;7.80;91.50;;;;;;5096096;28;20201;-70
2023/04/14 08:19:52;;;;;;;4.97;3.50;;;7.90;91.80;;;;;;5095800;28;20189;-70
2023/04/14 08:22:18;;;;;;;6.90;3.60;;;7.90;91.90;;;;;;5095118;28;20222;-70
2023/04/14 08:24:45;;;;;;;6.57;3.80;;;7.90;92.20;;;;;;5095838;28;20701;-70
2023/04/14 08:27:14;;;;;;;8.85;4.57;;;7.90;92.50;;;;;;5095757;28;20602;-70
2023/04/14 08:29:40;;;;;;;4.47;3.70;;;8.00;92.80;;;;;;5095886;28;20245;-70
2023/04/14 08:32:07;;;;;;;5.60;4.03;;;8.00;92.70;;;;;;5095254;28;20189;-70
2023/04/14 08:34:34;;;;;;;4.68;3.80;;;8.00;92.60;;;;;;5095362;28;20274;-70
2023/04/14 08:37:01;;;;;;;6.13;4.72;;;8.10;92.50;;;;;;5095376;28;20275;-70
2023/04/14 08:39:28;;;;;;;4.43;3.40;;;8.10;92.70;;;;;;5095644;28;20220;-70
2023/04/14 08:41:57;;;;;;;4.72;3.78;;;8.10;92.00;;;;;;5095405;28;20228;-69
2023/04/14 08:44:25;;;;;;;6.95;3.55;;;8.10;91.90;;;;;;5095470;28;20551;-70
2023/04/14 08:46:52;;;;;;;8.10;4.10;;;8.10;91.80;;;;;;5095049;28;20588;-70
2023/04/14 08:49:29;;;;;;;5.43;4.25;;;8.10;91.80;;;;;;5095374;28;20204;-70
2023/04/14 08:52:02;;;;;;;7.85;4.45;;;8.10;91.80;;;;;;5095424;28;20674;-70
2023/04/14 08:54:29;;;;;;;5.63;4.00;;;8.10;92.10;;;;;;5095519;28;20254;-70
2023/04/14 08:56:58;;;;;;;5.57;4.45;;;8.10;92.30;;;;;;5093646;28;20193;-70
2023/04/14 08:59:28;;;;;;;8.15;3.75;;;8.20;92.30;;;;;;5106287;28;20254;-70
2023/04/14 09:01:56;;;;;;;6.22;4.10;;;8.20;91.70;;;;;;5109242;28;20231;-70
2023/04/14 09:04:24;;;;;;;4.60;4.00;;;8.20;91.70;;;;;;5098242;28;20311;-70
2023/04/14 09:06:51;;;;;;;7.40;4.72;;;8.20;91.60;;;;;;5103069;28;20188;-71
2023/04/14 09:09:19;;;;;;;7.05;4.43;;;8.30;92.40;;;;;;5101469;28;20720;-70
2023/04/14 09:11:47;;;;;;;7.00;4.28;;;8.30;91.80;;;;;;5110114;28;20192;-70
2023/04/14 09:14:15;;;;;;;7.38;4.85;;;8.30;91.90;;;;;;5089744;28;20193;-69
2023/04/14 09:16:44;;;;;;;5.35;4.00;;;8.40;92.70;;;;;;5101414;28;20222;-71
2023/04/14 09:19:11;;;;;;;6.00;3.80;;;8.50;91.70;;;;;;5101519;28;20189;-70
2023/04/14 09:21:40;;;;;;;5.75;4.03;;;8.70;91.80;;;;;;5099856;28;20254;-70
2023/04/14 09:24:08;;;;;;;6.30;4.68;;;8.80;91.80;;;;;;5096998;28;20239;-71
2023/04/14 09:26:38;;;;;;;7.82;4.80;;;8.90;91.40;;;;;;5104101;28;20196;-71
2023/04/14 09:29:05;;;;;;;5.10;4.07;;;8.90;90.50;;;;;;5110263;28;20276;-70
2023/04/14 09:31:32;;;;;;;5.50;3.63;;;9.00;90.30;;;;;;5101292;28;20631;-70
2023/04/14 09:34:00;;;;;;;5.88;3.85;;;9.10;89.90;;;;;;5103312;28;20594;-70
2023/04/14 09:36:27;;;;;;;6.05;3.80;;;9.20;89.90;;;;;;5103064;28;20254;-71
2023/04/14 09:38:56;;;;;;;8.35;4.18;;;9.30;90.30;;;;;;5105313;28;20251;-70
2023/04/14 09:41:24;;;;;;;6.32;3.85;;;9.40;90.30;;;;;;5101177;28;20193;-70
2023/04/14 09:43:52;;;;;;;4.85;3.70;;;9.50;89.40;;;;;;5097451;28;20225;-70
2023/04/14 09:46:19;;;;;;;17.98;11.90;;;9.60;88.30;;;;;;5106326;28;20188;-70
2023/04/14 09:48:54;;;;;;;5.72;4.85;;;9.70;88.60;;;;;;5104848;28;20235;-70
2023/04/14 09:51:26;;;;;;;6.47;4.35;;;9.70;88.10;;;;;;5094520;28;20196;-70
2023/04/14 09:53:54;;;;;;;9.52;6.47;;;9.60;85.50;;;;;;5094571;28;20589;-70
2023/04/14 09:56:28;;;;;;;5.95;4.70;;;9.50;86.90;;;;;;5098034;28;20193;-71
2023/04/14 09:58:58;;;;;;;10.32;5.05;;;9.50;87.10;;;;;;5100298;28;20738;-70
2023/04/14 10:01:30;;;;;;;5.80;4.35;;;9.40;86.90;;;;;;5100464;28;20687;-70
2023/04/14 10:03:57;;;;;;;5.05;3.78;;;9.30;85.50;;;;;;5098504;28;20225;-70
2023/04/14 10:06:25;;;;;;;7.15;3.97;;;9.20;85.60;;;;;;5095562;28;20616;-71
2023/04/14 10:08:53;;;;;;;5.45;3.70;;;9.10;86.20;;;;;;5094642;28;20196;-70
2023/04/14 10:11:22;;;;;;;3.90;3.22;;;9.10;86.40;;;;;;5100707;28;20196;-70
2023/04/14 10:13:51;;;;;;;3.95;3.53;;;9.10;87.50;;;;;;5098479;28;20199;-70
2023/04/14 10:16:18;;;;;;;5.68;3.50;;;9.10;87.30;;;;;;5089089;28;20628;-71
2023/04/14 10:18:45;;;;;;;6.20;3.00;;;9.10;87.60;;;;;;5097146;28;20218;-71
2023/04/14 10:21:14;;;;;;;6.68;3.35;;;9.20;87.90;;;;;;5100000;28;20188;-71
2023/04/14 10:23:43;;;;;;;4.60;2.97;;;9.20;86.40;;;;;;5096968;28;20244;-71
2023/04/14 10:26:12;;;;;;;9.25;3.33;;;9.20;86.60;;;;;;5097297;28;20254;-71
2023/04/14 10:28:41;;;;;;;3.45;2.60;;;9.20;86.80;;;;;;5092623;28;20196;-70
2023/04/14 10:31:11;;;;;;;3.42;2.40;;;9.10;87.30;;;;;;5107791;28;20192;-71
2023/04/14 10:33:38;;;;;;;4.43;2.85;;;9.10;87.50;;;;;;5093381;28;20282;-71
2023/04/14 10:36:07;;;;;;;3.75;2.45;;;9.10;87.90;;;;;;5097114;28;20201;-70
2023/04/14 10:38:46;;;;;;;3.88;2.33;;;9.00;87.60;;;;;;5102515;28;20193;-71
2023/04/14 10:41:13;;;;;;;6.03;3.42;;;9.00;87.20;;;;;;5100549;28;20269;-70
2023/04/14 10:43:40;;;;;;;5.25;3.17;;;9.00;86.30;;;;;;5096311;28;20260;-70
2023/04/14 10:46:08;;;;;;;4.00;3.10;;;8.90;88.10;;;;;;5096214;28;20223;-70
2023/04/14 10:48:37;;;;;;;4.25;3.00;;;8.90;88.00;;;;;;5102711;28;20239;-71
2023/04/14 10:51:06;;;;;;;2.88;2.40;;;8.90;88.80;;;;;;5099844;28;20199;-70
2023/04/14 10:53:46;;;;;;;5.95;2.88;;;8.90;88.40;;;;;;5098793;28;20242;-70
2023/04/14 10:56:13;;;;;;;5.10;3.20;;;8.80;88.40;;;;;;5100211;28;20205;-70
2023/04/14 10:58:40;;;;;;;4.32;3.20;;;8.90;89.50;;;;;;5098470;28;20238;-71
2023/04/14 11:01:26;;;;;;;4.70;3.90;;;8.90;89.80;;;;;;5097954;28;20591;-71
2023/04/14 11:03:54;;;;;;;5.00;3.47;;;9.00;90.10;;;;;;5092937;28;20246;-70
2023/04/14 11:06:55;;;;;;;5.57;3.92;;;9.00;90.50;;;;;;5092868;28;20660;-70
2023/04/14 11:09:36;;;;;;;4.72;3.40;;;9.10;91.10;;;;;;5093135;28;20278;-70
2023/04/14 11:12:05;;;;;;;5.30;2.88;;;9.20;91.40;;;;;;5098462;28;20200;-70
2023/04/14 11:14:35;;;;;;;5.15;3.08;;;9.20;91.60;;;;;;5104842;28;20192;-70
2023/04/14 11:17:03;;;;;;;5.68;3.45;;;9.30;91.50;;;;;;5096669;28;20197;-70
2023/04/14 11:19:31;;;;;;;5.47;3.88;;;9.50;91.90;;;;;;5097505;28;20269;-70
2023/04/14 11:21:58;;;;;;;4.45;3.38;;;9.90;91.20;;;;;;5096447;28;20196;-70
2023/04/14 11:24:28;;;;;;;4.63;3.10;;;10.30;90.00;;;;;;5100309;28;20682;-70
2023/04/14 11:26:55;;;;;;;6.60;4.00;;;10.50;87.50;;;;;;5096147;28;20567;-70
2023/04/14 11:29:22;;;;;;;5.22;3.15;;;10.40;86.00;;;;;;5104066;28;20196;-70
2023/04/14 11:32:01;;;;;;;5.50;4.43;;;10.40;85.70;;;;;;5092116;28;20540;-70
2023/04/14 11:34:28;;;;;;;6.07;3.20;;;10.50;83.20;;;;;;5093212;28;20200;-70
2023/04/14 11:36:56;;;;;;;4.80;3.28;;;10.50;82.90;;;;;;5096216;28;20192;-70
2023/04/14 11:39:23;;;;;;;4.10;3.22;;;10.60;82.80;;;;;;5092321;28;20229;-70
2023/04/14 11:41:52;;;;;;;4.47;3.80;;;10.70;82.20;;;;;;5097443;28;20189;-71
2023/04/14 11:44:19;;;;;;;4.05;3.45;;;11.10;83.40;;;;;;5107728;28;20220;-70
2023/04/14 11:46:46;;;;;;;7.35;3.50;;;11.40;81.00;;;;;;5098008;28;20251;-70
2023/04/14 11:49:13;;;;;;;4.78;3.20;;;11.50;77.30;;;;;;5093891;28;20635;-70
2023/04/14 11:51:40;;;;;;;7.05;3.85;;;11.40;74.90;;;;;;5094590;28;20250;-70
2023/04/14 11:54:07;;;;;;;4.18;3.47;;;11.20;74.70;;;;;;5104494;28;20245;-70
2023/04/14 11:56:36;;;;;;;6.68;4.78;;;10.80;76.40;;;;;;5092295;28;20193;-72
2023/04/14 11:59:05;;;;;;;5.40;4.00;;;10.50;77.90;;;;;;5099589;28;20224;-70
2023/04/14 12:01:32;;;;;;;8.00;4.97;;;10.30;79.60;;;;;;5096169;28;20246;-71
2023/04/14 12:03:59;;;;;;;7.15;4.47;;;10.20;80.70;;;;;;5099690;28;20275;-70
2023/04/14 12:06:27;;;;;;;6.13;4.47;;;10.10;80.00;;;;;;5099780;28;20197;-70
2023/04/14 12:08:55;;;;;;;7.25;4.30;;;10.20;81.10;;;;;;5103130;28;20253;-70
2023/04/14 12:11:23;;;;;;;4.65;4.13;;;10.40;81.80;;;;;;5104664;28;20215;-70
2023/04/14 12:13:51;;;;;;;6.10;4.25;;;10.30;79.50;;;;;;5099766;28;20697;-70
2023/04/14 12:16:20;;;;;;;5.05;3.95;;;10.10;81.60;;;;;;5099331;28;20621;-71
2023/04/14 12:18:47;;;;;;;6.10;3.42;;;9.90;83.60;;;;;;5104391;28;20240;-70
2023/04/14 12:21:18;;;;;;;9.13;4.55;;;9.80;83.20;;;;;;5110062;28;20214;-71
2023/04/14 12:23:48;;;;;;;7.97;4.68;;;9.60;83.70;;;;;;5095250;28;20361;-70
2023/04/14 12:26:15;;;;;;;6.70;4.45;;;9.50;84.70;;;;;;5102621;28;20207;-70
2023/04/14 12:28:43;;;;;;;8.73;4.78;;;9.30;85.20;;;;;;5098504;28;20274;-70
2023/04/14 12:31:11;;;;;;;6.85;4.75;;;9.30;87.80;;;;;;5099462;28;20189;-70
2023/04/14 12:33:39;;;;;;;8.75;5.28;;;9.40;88.70;;;;;;5094609;28;20185;-70
2023/04/14 12:36:08;;;;;;;9.82;5.53;;;9.50;88.40;;;;;;5097959;28;20189;-71
2023/04/14 12:38:35;;;;;;;5.88;4.97;;;9.80;88.40;;;;;;5095198;28;20393;-71
2023/04/14 12:41:02;;;;;;;8.63;4.30;;;10.20;87.30;;;;;;5099246;28;20196;-71
2023/04/14 12:43:31;;;;;;;6.80;4.53;;;10.50;86.00;;;;;;5103042;28;20273;-70
2023/04/14 12:45:58;;;;;;;8.77;5.40;;;10.60;84.30;;;;;;5100563;28;20196;-70
2023/04/14 12:48:42;;;;;;;9.98;4.93;;;10.60;84.30;;;;;;5101076;28;20200;-70
2023/04/14 12:51:11;;;;;;;8.38;4.82;;;10.60;84.90;;;;;;5105010;28;20607;-70
2023/04/14 12:53:40;;;;;;;12.05;4.93;;;10.60;85.50;;;;;;5098856;28;20663;-71
2023/04/14 12:56:09;;;;;;;7.85;4.20;;;10.40;86.00;;;;;;5094559;28;20246;-71
2023/04/14 12:58:37;;;;;;;7.10;3.65;;;10.30;86.50;;;;;;5102865;28;20227;-70
2023/04/14 13:01:06;;;;;;;4.35;3.55;;;10.20;85.70;;;;;;5097106;28;20279;-71
2023/04/14 13:03:43;;;;;;;6.32;3.83;;;10.10;85.80;;;;;;5095604;28;20236;-70